createdAt,value
2023-04-28T00:01:54.370Z,96998.72
2023-04-28T00:03:58.688Z,97006.50
2023-04-28T00:06:01.607Z,97007.19
2023-04-28T00:08:05.994Z,97004.66
2023-04-28T00:10:09.989Z,97003.72
2023-04-28T00:12:12.570Z,97013.31
2023-04-28T00:14:15.710Z,97013.25
2023-04-28T00:16:18.697Z,97014.94
2023-04-28T00:18:21.610Z,97012.34
2023-04-28T00:20:24.237Z,97021.88
2023-04-28T00:22:26.880Z,97010.56
2023-04-28T00:24:32.580Z,97006.31
2023-04-28T00:26:35.127Z,97008.00
2023-04-28T00:28:38.073Z,97009.56
2023-04-28T00:30:40.785Z,97006.41
2023-04-28T00:32:43.346Z,97002.94
2023-04-28T00:34:46.035Z,97006.41
2023-04-28T00:36:48.588Z,97005.38
2023-04-28T00:38:51.340Z,96995.84
2023-04-28T00:40:55.233Z,96992.31
2023-04-28T00:42:57.772Z,96990.63
2023-04-28T00:45:05.635Z,96988.09
2023-04-28T00:47:09.977Z,96987.31
2023-04-28T00:49:12.822Z,96989.16
2023-04-28T00:51:15.626Z,96986.63
2023-04-28T00:53:18.302Z,96985.78
2023-04-28T00:55:21.460Z,96984.00
2023-04-28T00:57:25.881Z,96990.19
2023-04-28T00:59:28.480Z,96978.88
2023-04-28T01:01:31.137Z,96977.09
2023-04-28T01:03:35.671Z,96979.72
2023-04-28T01:05:38.403Z,96980.53
2023-04-28T01:07:41.050Z,96978.09
2023-04-28T01:09:44.046Z,96979.13
2023-04-28T01:11:46.648Z,96977.31
2023-04-28T01:13:50.655Z,96971.25
2023-04-28T01:15:53.493Z,96980.03
2023-04-28T01:17:57.424Z,96970.41
2023-04-28T01:20:00.012Z,96978.34
2023-04-28T01:22:02.583Z,96975.72
2023-04-28T01:24:08.848Z,96972.19
2023-04-28T01:26:11.379Z,96967.88
2023-04-28T01:28:13.935Z,96974.78
2023-04-28T01:30:16.597Z,96966.03
2023-04-28T01:32:19.874Z,96969.38
2023-04-28T01:34:22.446Z,96960.72
2023-04-28T01:36:25.023Z,96960.63
2023-04-28T01:38:27.557Z,96953.47
2023-04-28T01:40:31.581Z,96954.38
2023-04-28T01:42:34.164Z,96951.22
2023-04-28T01:44:36.731Z,96950.84
2023-04-28T01:46:39.437Z,96947.72
2023-04-28T01:48:42.027Z,96950.47
2023-04-28T01:50:44.573Z,96948.72
2023-04-28T01:52:47.165Z,96958.41
2023-04-28T01:54:49.745Z,96948.88
2023-04-28T01:56:53.927Z,96953.34
2023-04-28T01:58:56.515Z,96940.25
2023-04-28T02:00:59.609Z,96946.44
2023-04-28T02:03:02.208Z,96948.03
2023-04-28T02:05:04.960Z,96945.41
2023-04-28T02:07:08.064Z,96959.34
2023-04-28T02:09:10.642Z,96948.88
2023-04-28T02:11:13.263Z,96941.72
2023-04-28T02:13:17.742Z,96938.16
2023-04-28T02:15:20.497Z,96939.97
2023-04-28T02:17:23.456Z,96946.19
2023-04-28T02:19:26.296Z,96936.41
2023-04-28T02:21:28.895Z,96934.94
2023-04-28T02:23:31.435Z,96940.19
2023-04-28T02:25:34.036Z,96931.34
2023-04-28T02:27:37.575Z,96922.72
2023-04-28T02:29:42.078Z,96915.19
2023-04-28T02:31:44.665Z,96911.88
2023-04-28T02:33:47.300Z,96906.03
2023-04-28T02:35:59.818Z,96912.19
2023-04-28T02:38:02.621Z,96909.66
2023-04-28T02:40:05.913Z,96914.03
2023-04-28T02:42:08.514Z,96919.16
2023-04-28T02:44:11.265Z,96919.03
2023-04-28T02:46:15.188Z,96922.66
2023-04-28T02:48:17.928Z,96924.34
2023-04-28T02:50:20.740Z,96927.97
2023-04-28T02:52:23.294Z,96929.66
2023-04-28T02:54:28.421Z,96925.28
2023-04-28T02:56:31.073Z,96929.75
2023-04-28T02:58:33.670Z,96926.22
2023-04-28T03:00:36.382Z,96926.13
2023-04-28T03:02:40.329Z,96923.59
2023-04-28T03:04:43.001Z,96934.41
2023-04-28T03:06:48.256Z,96924.31
2023-04-28T03:08:50.848Z,96927.47
2023-04-28T03:10:53.445Z,96928.03
2023-04-28T03:12:56.255Z,96929.25
2023-04-28T03:14:58.793Z,96927.53
2023-04-28T03:17:01.435Z,96934.94
2023-04-28T03:19:05.445Z,96926.94
2023-04-28T03:21:07.989Z,96926.25
2023-04-28T03:23:10.551Z,96927.50
2023-04-28T03:25:13.195Z,96924.66
2023-04-28T03:27:16.003Z,96933.03
2023-04-28T03:29:18.600Z,96922.28
2023-04-28T03:31:21.360Z,96921.03
2023-04-28T03:33:23.052Z,96921.00
2023-04-28T03:35:26.831Z,96921.19
2023-04-28T03:37:29.373Z,96919.19
2023-04-28T03:39:32.193Z,96919.13
2023-04-28T03:41:34.776Z,96913.75
2023-04-28T03:43:37.342Z,96914.81
2023-04-28T03:45:40.050Z,96915.81
2023-04-28T03:47:42.713Z,96917.09
2023-04-28T03:49:45.417Z,96928.59
2023-04-28T03:51:51.180Z,96909.59
2023-04-28T03:53:53.776Z,96907.06
2023-04-28T03:55:56.409Z,96907.00
2023-04-28T03:57:59.063Z,96906.91
2023-04-28T04:00:01.625Z,96908.69
2023-04-28T04:02:04.467Z,96903.38
2023-04-28T04:04:07.272Z,96905.06
2023-04-28T04:06:10.249Z,96899.75
2023-04-28T04:08:14.504Z,96894.38
2023-04-28T04:10:17.279Z,96892.78
2023-04-28T04:12:19.922Z,96894.19
2023-04-28T04:14:22.664Z,96892.22
2023-04-28T04:16:25.381Z,96900.38
2023-04-28T04:18:28.530Z,96899.59
2023-04-28T04:20:31.088Z,96895.06
2023-04-28T04:22:33.691Z,96897.75
2023-04-28T04:24:37.569Z,96894.38
2023-04-28T04:26:40.145Z,96888.38
2023-04-28T04:28:42.712Z,96892.06
2023-04-28T04:30:45.395Z,96886.56
2023-04-28T04:32:47.995Z,96887.63
2023-04-28T04:34:50.602Z,96881.59
2023-04-28T04:36:53.187Z,96883.94
2023-04-28T04:38:55.744Z,96882.75
2023-04-28T04:40:59.659Z,96891.28
2023-04-28T04:43:02.244Z,96891.41
2023-04-28T04:45:05.303Z,96894.03
2023-04-28T04:47:07.861Z,96892.22
2023-04-28T04:49:10.405Z,96886.66
2023-04-28T04:51:12.941Z,96887.47
2023-04-28T04:53:16.367Z,96881.63
2023-04-28T04:55:19.384Z,96885.22
2023-04-28T04:57:23.306Z,96886.25
2023-04-28T04:59:25.973Z,96891.22
2023-04-28T05:01:28.574Z,96886.97
2023-04-28T05:03:31.233Z,96888.69
2023-04-28T05:05:34.653Z,96876.53
2023-04-28T05:07:37.318Z,96875.53
2023-04-28T05:09:39.866Z,96884.22
2023-04-28T05:11:42.486Z,96879.56
2023-04-28T05:13:46.417Z,96871.59
2023-04-28T05:15:48.995Z,96875.19
2023-04-28T05:17:51.681Z,96875.28
2023-04-28T05:19:54.282Z,96869.16
2023-04-28T05:21:56.923Z,96866.53
2023-04-28T05:23:59.492Z,96865.59
2023-04-28T05:26:03.145Z,96869.91
2023-04-28T05:28:07.675Z,96870.19
2023-04-28T05:30:12.222Z,96868.34
2023-04-28T05:32:14.925Z,96872.41
2023-04-28T05:34:17.902Z,96865.72
2023-04-28T05:36:20.747Z,96864.06
2023-04-28T05:38:23.639Z,96870.78
2023-04-28T05:40:26.408Z,96873.91
2023-04-28T05:42:29.068Z,96880.19
2023-04-28T05:44:32.603Z,96883.38
2023-04-28T05:46:37.531Z,96877.06
2023-04-28T05:48:40.130Z,96877.06
2023-04-28T05:50:42.744Z,96886.53
2023-04-28T05:52:45.343Z,96874.88
2023-04-28T05:54:47.893Z,96873.22
2023-04-28T05:56:50.591Z,96878.34
2023-04-28T05:58:53.301Z,96882.56
2023-04-28T06:00:55.869Z,96879.97
2023-04-28T06:02:59.896Z,96873.81
2023-04-28T06:05:02.805Z,96877.63
2023-04-28T06:07:06.004Z,96876.50
2023-04-28T06:09:09.018Z,96871.44
2023-04-28T06:11:11.765Z,96864.72
2023-04-28T06:13:14.834Z,96868.31
2023-04-28T06:15:17.650Z,96861.47
2023-04-28T06:17:20.730Z,96865.72
2023-04-28T06:19:24.680Z,96865.22
2023-04-28T06:21:28.617Z,96869.84
2023-04-28T06:23:31.353Z,96864.19
2023-04-28T06:25:33.972Z,96863.19
2023-04-28T06:27:36.542Z,96869.00
2023-04-28T06:29:39.134Z,96861.75
2023-04-28T06:31:41.856Z,96862.41
2023-04-28T06:33:44.509Z,96866.97
2023-04-28T06:35:48.551Z,96867.66
2023-04-28T06:37:51.098Z,96868.91
2023-04-28T06:39:53.706Z,96870.25
2023-04-28T06:41:56.290Z,96868.16
2023-04-28T06:43:58.844Z,96859.03
2023-04-28T06:46:01.967Z,96856.69
2023-04-28T06:48:04.729Z,96860.22
2023-04-28T06:50:08.395Z,96864.78
2023-04-28T06:52:14.291Z,96858.19
2023-04-28T06:54:18.590Z,96862.50
2023-04-28T06:56:22.214Z,96860.38
2023-04-28T06:58:24.856Z,96857.09
2023-04-28T07:00:27.466Z,96853.19
2023-04-28T07:02:30.304Z,96851.53
2023-04-28T07:04:32.982Z,96850.94
2023-04-28T07:06:35.771Z,96848.97
2023-04-28T07:08:39.724Z,96844.66
2023-04-28T07:10:42.273Z,96856.13
2023-04-28T07:12:45.684Z,96850.75
2023-04-28T07:14:48.253Z,96851.09
2023-04-28T07:16:50.846Z,96844.16
2023-04-28T07:18:53.483Z,96840.44
2023-04-28T07:20:56.055Z,96847.19
2023-04-28T07:22:58.672Z,96844.00
2023-04-28T07:25:02.604Z,96841.94
2023-04-28T07:27:05.219Z,96836.22
2023-04-28T07:29:08.953Z,96838.25
2023-04-28T07:31:11.605Z,96839.94
2023-04-28T07:33:14.200Z,96839.50
2023-04-28T07:35:16.949Z,96841.38
2023-04-28T07:37:19.702Z,96835.94
2023-04-28T07:39:22.301Z,96833.25
2023-04-28T07:41:28.927Z,96831.84
2023-04-28T07:43:31.698Z,96831.25
2023-04-28T07:45:34.289Z,96827.78
2023-04-28T07:47:37.003Z,96843.41
2023-04-28T07:49:39.615Z,96840.28
2023-04-28T07:51:42.231Z,96847.19
2023-04-28T07:53:44.805Z,96846.88
2023-04-28T07:55:47.638Z,96845.00
2023-04-28T07:57:51.537Z,96848.06
2023-04-28T07:59:54.159Z,96843.31
2023-04-28T08:01:56.810Z,96842.13
2023-04-28T08:03:59.634Z,96844.50
2023-04-28T08:06:02.660Z,96841.19
2023-04-28T08:08:05.758Z,96840.19
2023-04-28T08:10:10.531Z,96841.97
2023-04-28T08:12:13.212Z,96845.72
2023-04-28T08:14:17.880Z,96855.16
2023-04-28T08:16:20.897Z,96849.16
2023-04-28T08:18:23.926Z,96861.91
2023-04-28T08:20:26.599Z,96863.59
2023-04-28T08:22:29.224Z,96860.22
2023-04-28T08:24:34.206Z,96871.63
2023-04-28T08:26:36.796Z,96866.31
2023-04-28T08:28:40.046Z,96870.34
2023-04-28T08:30:44.053Z,96876.63
2023-04-28T08:32:46.680Z,96878.97
2023-04-28T08:34:49.370Z,96879.56
2023-04-28T08:36:53.574Z,96874.94
2023-04-28T08:38:58.824Z,96883.94
2023-04-28T08:41:01.393Z,96888.59
2023-04-28T08:43:04.033Z,96888.59
2023-04-28T08:45:07.934Z,96889.59
2023-04-28T08:47:14.490Z,96894.94
2023-04-28T08:49:18.637Z,96892.97
2023-04-28T08:51:29.707Z,96896.72
2023-04-28T08:53:33.318Z,96900.75
2023-04-28T08:55:37.519Z,96902.81
2023-04-28T08:57:43.932Z,96900.88
2023-04-28T08:59:46.748Z,96906.09
2023-04-28T09:01:50.253Z,96905.00
2023-04-28T09:03:55.636Z,96902.81
2023-04-28T09:05:58.545Z,96897.72
2023-04-28T09:08:03.823Z,96904.72
2023-04-28T09:10:20.477Z,96902.31
2023-04-28T09:12:24.243Z,96908.63
2023-04-28T09:14:27.714Z,96909.09
2023-04-28T09:16:41.437Z,96904.97
2023-04-28T09:18:58.389Z,96915.09
2023-04-28T09:21:05.524Z,96915.88
2023-04-28T09:23:16.316Z,96919.22
2023-04-28T09:25:19.271Z,96913.13
2023-04-28T09:27:28.404Z,96917.50
2023-04-28T09:29:31.704Z,96919.84
2023-04-28T09:31:40.569Z,96914.00
2023-04-28T09:33:59.296Z,96928.09
2023-04-28T09:36:02.013Z,96924.19
2023-04-28T09:38:04.653Z,96923.88
2023-04-28T09:40:09.886Z,96926.00
2023-04-28T09:42:12.510Z,96924.94
2023-04-28T09:44:17.107Z,96935.69
2023-04-28T09:46:29.898Z,96930.38
2023-04-28T09:48:34.197Z,96931.91
2023-04-28T09:50:42.144Z,96930.38
2023-04-28T09:52:46.880Z,96934.97
2023-04-28T09:54:51.257Z,96941.50
2023-04-28T09:56:55.183Z,96940.63
2023-04-28T09:58:59.228Z,96941.53
2023-04-28T10:01:02.363Z,96932.25
2023-04-28T10:03:06.592Z,96931.44
2023-04-28T10:05:11.213Z,96935.81
2023-04-28T10:07:16.897Z,96926.41
2023-04-28T10:09:26.449Z,96931.13
2023-04-28T10:11:30.583Z,96932.06
2023-04-28T10:13:33.669Z,96931.78
2023-04-28T10:15:37.462Z,96928.75
2023-04-28T10:17:40.543Z,96937.13
2023-04-28T10:19:45.339Z,96928.94
2023-04-28T10:21:56.902Z,96924.75
2023-04-28T10:24:16.533Z,96931.28
2023-04-28T10:26:20.655Z,96925.38
2023-04-28T10:28:23.445Z,96928.84
2023-04-28T10:30:29.540Z,96925.16
2023-04-28T10:32:33.388Z,96927.66
2023-04-28T10:34:36.034Z,96920.38
2023-04-28T10:36:50.723Z,96925.69
2023-04-28T10:39:12.195Z,96920.31
2023-04-28T10:41:33.087Z,96919.00
2023-04-28T10:43:40.130Z,96917.03
2023-04-28T10:46:01.297Z,96921.63
2023-04-28T10:48:06.380Z,96926.13
2023-04-28T10:50:09.765Z,96923.09
2023-04-28T10:52:44.182Z,96919.28
2023-04-28T10:55:32.196Z,96920.78
2023-04-28T10:57:34.798Z,96917.53
2023-04-28T10:59:37.548Z,96924.34
2023-04-28T11:01:40.562Z,96916.41
2023-04-28T11:03:51.566Z,96924.16
2023-04-28T11:06:20.421Z,96919.78
2023-04-28T11:08:37.914Z,96920.53
2023-04-28T11:11:18.617Z,96915.78
2023-04-28T11:13:28.046Z,96912.34
2023-04-28T11:15:30.824Z,96912.78
2023-04-28T11:17:41.793Z,96908.91
2023-04-28T11:19:46.092Z,96907.72
2023-04-28T11:21:49.620Z,96914.59
2023-04-28T11:23:53.270Z,96902.34
2023-04-28T11:25:55.974Z,96915.09
2023-04-28T11:28:07.046Z,96915.75
2023-04-28T11:30:22.287Z,96918.28
2023-04-28T11:32:29.436Z,96913.66
2023-04-28T11:34:32.648Z,96913.09
2023-04-28T11:36:37.108Z,96918.47
2023-04-28T11:38:44.882Z,96923.56
2023-04-28T11:40:58.161Z,96912.16
2023-04-28T11:43:01.965Z,96915.13
2023-04-28T11:45:08.049Z,96913.84
2023-04-28T11:47:10.968Z,96910.16
2023-04-28T11:49:15.015Z,96908.78
2023-04-28T11:51:34.744Z,96915.63
2023-04-28T11:53:43.603Z,96913.84
2023-04-28T11:55:46.216Z,96907.94
2023-04-28T11:57:48.778Z,96903.66
2023-04-28T11:59:51.905Z,96901.03
2023-04-28T12:01:59.202Z,96907.00
2023-04-28T12:04:02.234Z,96900.38
2023-04-28T12:06:05.484Z,96897.22
2023-04-28T12:08:08.263Z,96897.41
2023-04-28T12:10:12.441Z,96897.63
2023-04-28T12:12:18.258Z,96899.53
2023-04-28T12:14:21.256Z,96893.00
2023-04-28T12:16:39.121Z,96900.28
2023-04-28T12:18:59.521Z,96897.03
2023-04-28T12:21:02.136Z,96902.06
2023-04-28T12:23:05.434Z,96894.28
2023-04-28T12:25:09.884Z,96900.28
2023-04-28T12:27:16.901Z,96906.81
2023-04-28T12:29:41.771Z,96911.00
2023-04-28T12:31:52.958Z,96903.31
2023-04-28T12:33:57.062Z,96908.91
2023-04-28T12:35:59.847Z,96921.34
2023-04-28T12:38:02.433Z,96908.59
2023-04-28T12:40:06.513Z,96915.34
2023-04-28T12:42:09.217Z,96907.31
2023-04-28T12:44:11.786Z,96913.75
2023-04-28T12:46:15.691Z,96908.19
2023-04-28T12:48:18.440Z,96912.81
2023-04-28T12:50:22.427Z,96904.06
2023-04-28T12:52:25.002Z,96897.66
2023-04-28T12:54:27.772Z,96904.69
2023-04-28T12:56:30.398Z,96893.00
2023-04-28T12:58:33.032Z,96893.31
2023-04-28T13:00:35.579Z,96886.03
2023-04-28T13:02:38.468Z,96891.53
2023-04-28T13:04:42.896Z,96889.59
2023-04-28T13:06:47.056Z,96890.47
2023-04-28T13:08:50.192Z,96886.25
2023-04-28T13:10:52.794Z,96884.84
2023-04-28T13:12:55.374Z,96882.16
2023-04-28T13:14:57.921Z,96886.34
2023-04-28T13:17:01.595Z,96883.59
2023-04-28T13:19:09.365Z,96887.28
2023-04-28T13:21:11.936Z,96895.41
2023-04-28T13:23:15.888Z,96891.72
2023-04-28T13:25:18.490Z,96882.97
2023-04-28T13:27:21.126Z,96886.47
2023-04-28T13:29:23.699Z,96878.03
2023-04-28T13:31:26.379Z,96876.66
2023-04-28T13:33:31.242Z,96880.88
2023-04-28T13:35:33.832Z,96873.69
2023-04-28T13:37:38.988Z,96873.63
2023-04-28T13:39:42.873Z,96872.22
2023-04-28T13:41:45.430Z,96873.16
2023-04-28T13:43:48.049Z,96878.66
2023-04-28T13:45:50.727Z,96873.50
2023-04-28T13:47:54.982Z,96869.84
2023-04-28T13:49:57.692Z,96872.78
2023-04-28T13:52:03.580Z,96868.25
2023-04-28T13:54:08.735Z,96863.53
2023-04-28T13:56:12.704Z,96858.34
2023-04-28T13:58:15.254Z,96856.84
2023-04-28T14:00:21.333Z,96856.06
2023-04-28T14:02:24.579Z,96856.22
2023-04-28T14:04:27.432Z,96852.22
2023-04-28T14:06:31.113Z,96856.97
2023-04-28T14:08:34.492Z,96864.56
2023-04-28T14:10:37.125Z,96863.66
2023-04-28T14:12:41.053Z,96877.22
2023-04-28T14:14:43.948Z,96873.03
2023-04-28T14:16:47.565Z,96869.84
2023-04-28T14:18:50.146Z,96866.28
2023-04-28T14:20:54.162Z,96870.28
2023-04-28T14:22:56.790Z,96886.47
2023-04-28T14:24:59.360Z,96891.75
2023-04-28T14:27:01.951Z,96884.69
2023-04-28T14:29:06.058Z,96875.22
2023-04-28T14:31:09.096Z,96878.56
2023-04-28T14:33:11.965Z,96869.53
2023-04-28T14:35:15.482Z,96868.97
2023-04-28T14:37:18.273Z,96870.75
2023-04-28T14:39:20.852Z,96873.72
2023-04-28T14:41:23.415Z,96881.50
2023-04-28T14:43:26.404Z,96879.03
2023-04-28T14:45:30.343Z,96866.09
2023-04-28T14:47:33.411Z,96876.66
2023-04-28T14:49:36.067Z,96883.78
2023-04-28T14:51:38.611Z,96874.63
2023-04-28T14:53:42.024Z,96880.16
2023-04-28T14:55:44.744Z,96867.09
2023-04-28T14:57:48.230Z,96852.81
2023-04-28T14:59:51.873Z,96856.06
2023-04-28T15:01:58.950Z,96844.78
2023-04-28T15:04:01.829Z,96840.81
2023-04-28T15:06:05.532Z,96861.69
2023-04-28T15:08:08.065Z,96856.31
2023-04-28T15:10:10.812Z,96839.69
2023-04-28T15:12:13.437Z,96838.19
2023-04-28T15:14:16.446Z,96837.88
2023-04-28T15:16:19.382Z,96839.97
2023-04-28T15:18:23.302Z,96845.06
2023-04-28T15:20:27.250Z,96839.38
2023-04-28T15:22:31.220Z,96841.44
2023-04-28T15:24:33.762Z,96841.19
2023-04-28T15:26:36.342Z,96845.41
2023-04-28T15:28:39.346Z,96849.28
2023-04-28T15:30:42.300Z,96848.31
2023-04-28T15:32:45.322Z,96850.03
2023-04-28T15:34:49.494Z,96849.81
2023-04-28T15:36:53.851Z,96846.44
2023-04-28T15:38:56.468Z,96837.00
2023-04-28T15:40:59.178Z,96842.34
2023-04-28T15:43:02.907Z,96831.38
2023-04-28T15:45:06.721Z,96828.47
2023-04-28T15:47:10.105Z,96824.69
2023-04-28T15:49:13.276Z,96825.72
2023-04-28T15:51:17.204Z,96829.00
2023-04-28T15:53:19.778Z,96828.25
2023-04-28T15:55:24.022Z,96828.16
2023-04-28T15:57:26.903Z,96831.84
2023-04-28T15:59:31.026Z,96828.81
2023-04-28T16:01:33.919Z,96825.44
2023-04-28T16:03:36.738Z,96824.88
2023-04-28T16:05:42.350Z,96823.75
2023-04-28T16:07:47.605Z,96820.78
2023-04-28T16:09:50.156Z,96811.22
2023-04-28T16:11:52.789Z,96807.00
2023-04-28T16:13:55.373Z,96808.03
2023-04-28T16:15:57.911Z,96806.25
2023-04-28T16:18:00.591Z,96801.81
2023-04-28T16:20:04.561Z,96801.00
2023-04-28T16:22:07.254Z,96804.50
2023-04-28T16:24:11.380Z,96799.56
2023-04-28T16:26:13.951Z,96803.91
2023-04-28T16:28:16.538Z,96799.31
2023-04-28T16:30:19.307Z,96798.88
2023-04-28T16:32:21.974Z,96797.38
2023-04-28T16:34:24.684Z,96798.13
2023-04-28T16:36:32.755Z,96786.13
2023-04-28T16:38:35.622Z,96792.50
2023-04-28T16:40:39.704Z,96802.09
2023-04-28T16:42:43.510Z,96810.09
2023-04-28T16:44:46.147Z,96808.53
2023-04-28T16:46:48.875Z,96799.16
2023-04-28T16:48:51.447Z,96803.47
2023-04-28T16:50:54.069Z,96814.91
2023-04-28T16:52:56.717Z,96811.53
2023-04-28T16:55:00.436Z,96812.50
2023-04-28T16:57:04.943Z,96810.72
2023-04-28T16:59:07.792Z,96815.66
2023-04-28T17:01:10.394Z,96820.38
2023-04-28T17:03:13.108Z,96818.72
2023-04-28T17:05:15.749Z,96822.22
2023-04-28T17:07:18.344Z,96822.91
2023-04-28T17:09:21.971Z,96821.34
2023-04-28T17:11:24.516Z,96820.28
2023-04-28T17:13:28.427Z,96825.44
2023-04-28T17:15:31.204Z,96822.91
2023-04-28T17:17:34.581Z,96820.81
2023-04-28T17:19:37.510Z,96825.69
2023-04-28T17:21:40.161Z,96826.16
2023-04-28T17:23:42.851Z,96824.41
2023-04-28T17:25:45.525Z,96815.13
2023-04-28T17:27:48.092Z,96823.53
2023-04-28T17:29:52.525Z,96815.78
2023-04-28T17:31:55.540Z,96815.19
2023-04-28T17:33:59.602Z,96812.84
2023-04-28T17:36:03.040Z,96813.38
2023-04-28T17:38:09.353Z,96819.09
2023-04-28T17:40:12.857Z,96816.97
2023-04-28T17:42:15.987Z,96815.19
2023-04-28T17:44:18.583Z,96814.00
2023-04-28T17:46:22.815Z,96818.25
2023-04-28T17:48:25.365Z,96816.41
2023-04-28T17:50:27.940Z,96808.22
2023-04-28T17:52:30.599Z,96811.38
2023-04-28T17:54:33.921Z,96811.53
2023-04-28T17:56:37.784Z,96811.66
2023-04-28T17:58:40.645Z,96815.22
2023-04-28T18:00:43.226Z,96815.44
2023-04-28T18:02:47.230Z,96818.72
2023-04-28T18:04:50.748Z,96827.41
2023-04-28T18:06:53.567Z,96815.44
2023-04-28T18:08:56.220Z,96821.91
2023-04-28T18:10:59.793Z,96820.69
2023-04-28T18:13:02.402Z,96820.78
2023-04-28T18:15:05.519Z,96826.88
2023-04-28T18:17:08.573Z,96829.94
2023-04-28T18:19:13.846Z,96835.00
2023-04-28T18:21:16.637Z,96838.47
2023-04-28T18:23:19.689Z,96835.97
2023-04-28T18:25:23.376Z,96833.34
2023-04-28T18:27:25.975Z,96840.94
2023-04-28T18:29:28.600Z,96850.69
2023-04-28T18:31:31.979Z,96852.22
2023-04-28T18:33:34.697Z,96845.78
2023-04-28T18:35:38.657Z,96854.78
2023-04-28T18:37:44.710Z,96864.16
2023-04-28T18:39:50.360Z,96853.25
2023-04-28T18:41:53.070Z,96849.44
2023-04-28T18:43:58.250Z,96861.44
2023-04-28T18:46:04.236Z,96867.59
2023-04-28T18:48:07.368Z,96862.56
2023-04-28T18:50:10.532Z,96868.22
2023-04-28T18:52:14.762Z,96875.88
2023-04-28T18:54:17.476Z,96866.34
2023-04-28T18:56:20.971Z,96870.53
2023-04-28T18:58:26.689Z,96877.41
2023-04-28T19:00:29.351Z,96876.44
2023-04-28T19:02:32.779Z,96880.94
2023-04-28T19:04:35.657Z,96883.66
2023-04-28T19:06:38.757Z,96883.28
2023-04-28T19:08:43.723Z,96873.81
2023-04-28T19:10:47.826Z,96872.13
2023-04-28T19:12:50.386Z,96883.56
2023-04-28T19:14:53.434Z,96885.91
2023-04-28T19:16:56.173Z,96889.09
2023-04-28T19:18:58.885Z,96887.50
2023-04-28T19:21:02.690Z,96889.75
2023-04-28T19:23:05.257Z,96893.31
2023-04-28T19:25:09.756Z,96899.31
2023-04-28T19:27:12.284Z,96897.16
2023-04-28T19:29:17.169Z,96897.91
2023-04-28T19:31:19.861Z,96894.44
2023-04-28T19:33:26.229Z,96896.31
2023-04-28T19:35:30.462Z,96900.81
2023-04-28T19:37:34.056Z,96905.41
2023-04-28T19:39:37.699Z,96907.84
2023-04-28T19:41:41.672Z,96909.81
2023-04-28T19:43:44.424Z,96907.28
2023-04-28T19:45:48.707Z,96901.69
2023-04-28T19:47:51.845Z,96910.38
2023-04-28T19:49:54.660Z,96911.44
2023-04-28T19:51:57.412Z,96908.81
2023-04-28T19:53:59.971Z,96914.06
2023-04-28T19:56:03.827Z,96915.81
2023-04-28T19:58:09.742Z,96918.75
2023-04-28T20:00:13.694Z,96912.94
2023-04-28T20:02:16.580Z,96909.34
2023-04-28T20:04:19.420Z,96914.25
2023-04-28T20:06:22.427Z,96908.16
2023-04-28T20:08:25.955Z,96911.22
2023-04-28T20:10:28.493Z,96905.97
2023-04-28T20:12:31.096Z,96915.66
2023-04-28T20:14:35.751Z,96906.44
2023-04-28T20:16:41.258Z,96902.19
2023-04-28T20:18:43.923Z,96912.97
2023-04-28T20:20:46.483Z,96913.91
2023-04-28T20:22:50.639Z,96920.19
2023-04-28T20:24:54.003Z,96922.53
2023-04-28T20:26:56.554Z,96918.69
2023-04-28T20:28:59.549Z,96917.38
2023-04-28T20:31:03.515Z,96924.50
2023-04-28T20:33:06.128Z,96923.56
2023-04-28T20:35:09.237Z,96925.06
2023-04-28T20:37:13.447Z,96929.84
2023-04-28T20:39:16.034Z,96929.38
2023-04-28T20:41:18.609Z,96921.22
2023-04-28T20:43:21.433Z,96927.09
2023-04-28T20:45:24.636Z,96923.16
2023-04-28T20:47:28.604Z,96920.91
2023-04-28T20:49:31.268Z,96918.66
2023-04-28T20:51:34.207Z,96921.63
2023-04-28T20:53:38.297Z,96922.19
2023-04-28T20:55:40.887Z,96913.94
2023-04-28T20:57:43.461Z,96913.00
2023-04-28T20:59:45.999Z,96912.91
2023-04-28T21:01:48.634Z,96910.47
2023-04-28T21:03:52.862Z,96915.50
2023-04-28T21:05:55.986Z,96921.63
2023-04-28T21:07:58.593Z,96917.56
2023-04-28T21:10:01.161Z,96921.56
2023-04-28T21:12:04.622Z,96929.44
2023-04-28T21:14:07.293Z,96930.19
2023-04-28T21:16:13.636Z,96928.66
2023-04-28T21:18:16.220Z,96933.44
2023-04-28T21:20:20.518Z,96929.97
2023-04-28T21:22:23.288Z,96930.81
2023-04-28T21:24:25.866Z,96932.66
2023-04-28T21:26:28.618Z,96927.56
2023-04-28T21:28:33.889Z,96922.13
2023-04-28T21:30:36.467Z,96927.84
2023-04-28T21:32:39.081Z,96930.13
2023-04-28T21:34:41.752Z,96921.44
2023-04-28T21:36:45.658Z,96917.03
2023-04-28T21:38:49.086Z,96919.16
2023-04-28T21:40:51.824Z,96916.16
2023-04-28T21:42:54.400Z,96914.63
2023-04-28T21:44:57.285Z,96916.56
2023-04-28T21:46:59.892Z,96916.66
2023-04-28T21:49:02.474Z,96919.38
2023-04-28T21:51:05.401Z,96921.22
2023-04-28T21:53:09.326Z,96922.91
2023-04-28T21:55:11.900Z,96924.59
2023-04-28T21:57:15.755Z,96920.94
2023-04-28T21:59:18.340Z,96918.59
2023-04-28T22:01:21.366Z,96921.22
2023-04-28T22:03:24.328Z,96926.28
2023-04-28T22:05:27.029Z,96921.13
2023-04-28T22:07:30.251Z,96928.22
2023-04-28T22:09:34.501Z,96928.31
2023-04-28T22:11:37.576Z,96930.09
2023-04-28T22:13:40.307Z,96923.09
2023-04-28T22:15:43.182Z,96931.78
2023-04-28T22:17:46.058Z,96926.72
2023-04-28T22:19:48.745Z,96928.41
2023-04-28T22:21:51.485Z,96937.03
2023-04-28T22:23:54.029Z,96936.34
2023-04-28T22:26:00.043Z,96932.97
2023-04-28T22:28:02.993Z,96932.06
2023-04-28T22:30:08.142Z,96927.91
2023-04-28T22:32:10.839Z,96928.00
2023-04-28T22:34:13.423Z,96927.25
2023-04-28T22:36:15.995Z,96930.53
2023-04-28T22:38:18.614Z,96929.00
2023-04-28T22:40:21.561Z,96938.72
2023-04-28T22:42:25.467Z,96935.19
2023-04-28T22:44:28.042Z,96931.03
2023-04-28T22:46:31.225Z,96932.09
2023-04-28T22:48:33.924Z,96930.34
2023-04-28T22:50:36.489Z,96936.53
2023-04-28T22:52:40.065Z,96927.25
2023-04-28T22:54:42.626Z,96933.38
2023-04-28T22:56:45.182Z,96933.47
2023-04-28T22:58:49.330Z,96928.75
2023-04-28T23:00:51.861Z,96929.75
2023-04-28T23:02:54.554Z,96923.50
2023-04-28T23:04:57.686Z,96929.09
2023-04-28T23:07:00.233Z,96928.31
2023-04-28T23:09:03.556Z,96928.75
2023-04-28T23:11:07.478Z,96926.53
2023-04-28T23:13:10.136Z,96926.13
2023-04-28T23:15:14.111Z,96926.53
2023-04-28T23:17:16.791Z,96923.50
2023-04-28T23:19:20.730Z,96929.84
2023-04-28T23:21:23.460Z,96926.03
2023-04-28T23:23:26.140Z,96922.38
2023-04-28T23:25:28.730Z,96928.91
2023-04-28T23:27:31.293Z,96925.03
2023-04-28T23:29:35.187Z,96924.13
2023-04-28T23:31:39.970Z,96920.03
2023-04-28T23:33:42.782Z,96924.69
2023-04-28T23:35:45.337Z,96919.56
2023-04-28T23:37:47.897Z,96926.88
2023-04-28T23:39:50.688Z,96923.91
2023-04-28T23:41:53.439Z,96922.16
2023-04-28T23:43:56.644Z,96920.44
2023-04-28T23:45:59.269Z,96924.09
2023-04-28T23:48:03.214Z,96920.53
2023-04-28T23:50:06.537Z,96921.53
2023-04-28T23:52:11.534Z,96919.47
2023-04-28T23:54:14.182Z,96916.97
2023-04-28T23:56:16.794Z,96918.28
2023-04-28T23:58:19.408Z,96909.97
